Blue Dome, Idaho
Current Conditions -  °F | °C
As of 9:55 PM on Friday 21 Nov 2014 (Local Time) from KLLJ Reporting Station
Overcast Overcast  
Wind Chill: 25°   Ceiling: 8000
Heat Index: 25°   Visibility: 9mi
Dew Point: 22°   Wind: 0mph
Humidity: 88%   Direction: NA
Pressure: 29.79"   Gusts: NA
Location:  44.5987°N, 113.355°W
Report Text: KLLJ 220455Z AUTO 00000KT 9SM FEW060 BKN080 OVC110 M04/M06 A2979 RMK AO2 SLP123 T10391056
Loading
Personal Weather Stations






























Interactive Weather Map New forecast layout! Learn more

10-Day Weather Forecast

Advertisements
Track Severe Weather on mobile